createdAt,value
2022-09-03T00:02:21.969Z,5.57
2022-09-03T00:07:11.577Z,6.72
2022-09-03T00:12:06.095Z,6.53
2022-09-03T00:16:55.979Z,8.85
2022-09-03T00:21:47.870Z,8.80
2022-09-03T00:26:37.587Z,7.07
2022-09-03T00:31:31.227Z,7.13
2022-09-03T00:36:22.099Z,7.85
2022-09-03T00:41:17.076Z,5.57
2022-09-03T00:46:10.230Z,5.85
2022-09-03T00:51:13.101Z,9.55
2022-09-03T00:56:05.816Z,6.32
2022-09-03T01:00:53.051Z,5.90
2022-09-03T01:06:01.426Z,8.32
2022-09-03T01:10:59.719Z,8.55
2022-09-03T01:15:53.392Z,8.45
2022-09-03T01:20:54.600Z,7.35
2022-09-03T01:25:56.001Z,10.07
2022-09-03T01:30:49.396Z,8.77
2022-09-03T01:35:41.585Z,5.18
2022-09-03T01:40:33.937Z,10.35
2022-09-03T01:45:51.052Z,6.18
2022-09-03T01:50:47.469Z,9.02
2022-09-03T01:55:36.543Z,6.40
2022-09-03T02:00:23.377Z,9.23
2022-09-03T02:05:12.156Z,8.70
2022-09-03T02:10:00.143Z,10.35
2022-09-03T02:14:45.927Z,14.93
2022-09-03T02:19:34.898Z,12.07
2022-09-03T02:24:20.408Z,15.25
2022-09-03T02:29:08.508Z,14.15
2022-09-03T02:33:54.586Z,10.93
2022-09-03T02:38:40.571Z,12.75
2022-09-03T02:43:30.946Z,12.45
2022-09-03T02:48:22.294Z,11.20
2022-09-03T02:53:07.541Z,10.83
2022-09-03T02:57:52.873Z,10.25
2022-09-03T03:02:38.076Z,16.15
2022-09-03T03:07:26.799Z,10.98
2022-09-03T03:12:12.154Z,9.63
2022-09-03T03:16:57.575Z,11.77
2022-09-03T03:21:42.766Z,11.35
2022-09-03T03:26:31.195Z,8.43
2022-09-03T03:31:18.066Z,8.18
2022-09-03T03:36:07.774Z,13.07
2022-09-03T03:40:52.860Z,11.20
2022-09-03T03:45:40.876Z,10.65
2022-09-03T03:50:25.954Z,10.57
2022-09-03T03:55:11.344Z,9.60
2022-09-03T04:00:01.020Z,12.63
2022-09-03T04:04:48.916Z,11.98
2022-09-03T04:09:34.428Z,9.80
2022-09-03T04:14:20.925Z,9.75
2022-09-03T04:19:05.934Z,10.27
2022-09-03T04:23:55.105Z,8.75
2022-09-03T04:28:42.233Z,8.68
2022-09-03T04:33:28.451Z,8.57
2022-09-03T04:38:14.092Z,11.05
2022-09-03T04:43:03.448Z,12.95
2022-09-03T04:47:49.802Z,11.98
2022-09-03T04:52:35.619Z,14.85
2022-09-03T04:57:20.725Z,12.90
2022-09-03T05:02:08.700Z,11.95
2022-09-03T05:06:53.875Z,13.07
2022-09-03T05:11:39.984Z,16.00
2022-09-03T05:16:26.498Z,14.82
2022-09-03T05:21:16.138Z,14.27
2022-09-03T05:26:01.972Z,11.30
2022-09-03T05:30:47.307Z,17.05
2022-09-03T05:35:32.416Z,11.75
2022-09-03T05:40:20.622Z,13.20
2022-09-03T05:45:06.221Z,10.40
2022-09-03T05:49:51.556Z,29.70
2022-09-03T05:54:37.073Z,20.17
2022-09-03T05:59:24.977Z,16.98
2022-09-03T06:04:11.918Z,16.85
2022-09-03T06:08:58.867Z,16.05
2022-09-03T06:13:43.946Z,17.15
2022-09-03T06:18:33.091Z,14.82
2022-09-03T06:23:18.439Z,16.90
2022-09-03T06:28:03.815Z,15.10
2022-09-03T06:32:50.362Z,20.88
2022-09-03T06:37:43.017Z,15.88
2022-09-03T06:42:28.872Z,14.52
2022-09-03T06:47:14.184Z,15.35
2022-09-03T06:51:59.501Z,18.10
2022-09-03T06:56:47.461Z,16.77
2022-09-03T07:01:34.982Z,16.55
2022-09-03T07:06:22.548Z,17.40
2022-09-03T07:11:10.756Z,16.75
2022-09-03T07:16:05.546Z,14.00
2022-09-03T07:20:50.955Z,15.55
2022-09-03T07:25:36.354Z,14.85
2022-09-03T07:30:22.365Z,17.95
2022-09-03T07:35:11.401Z,15.23
2022-09-03T07:39:56.497Z,13.32
2022-09-03T07:44:41.871Z,14.73
2022-09-03T07:49:26.963Z,12.90
2022-09-03T07:54:14.915Z,15.15
2022-09-03T07:59:00.279Z,14.00
2022-09-03T08:03:47.654Z,17.27
2022-09-03T08:08:33.701Z,9.70
2022-09-03T08:13:23.724Z,11.63
2022-09-03T08:18:14.174Z,13.98
2022-09-03T08:23:04.756Z,14.05
2022-09-03T08:27:49.819Z,10.63
2022-09-03T08:32:38.134Z,15.75
2022-09-03T08:37:29.221Z,14.43
2022-09-03T08:42:28.538Z,11.52
2022-09-03T08:47:17.722Z,13.55
2022-09-03T08:52:11.803Z,12.85
2022-09-03T08:56:58.809Z,12.27
2022-09-03T09:01:55.576Z,9.52
2022-09-03T09:06:49.344Z,13.20
2022-09-03T09:11:49.125Z,12.38
2022-09-03T09:16:41.766Z,12.05
2022-09-03T09:21:32.486Z,9.00
2022-09-03T09:26:21.635Z,7.18
2022-09-03T09:31:15.785Z,12.48
2022-09-03T09:36:03.169Z,10.73
2022-09-03T09:40:48.526Z,9.00
2022-09-03T09:45:35.288Z,8.40
2022-09-03T09:50:24.954Z,12.32
2022-09-03T09:55:17.858Z,9.35
2022-09-03T10:00:13.058Z,10.27
2022-09-03T10:05:04.407Z,7.43
2022-09-03T10:10:01.978Z,9.27
2022-09-03T10:14:53.872Z,8.05
2022-09-03T10:20:06.570Z,9.27
2022-09-03T10:25:02.214Z,9.93
2022-09-03T10:29:47.815Z,6.78
2022-09-03T10:34:41.327Z,7.30
2022-09-03T10:39:43.049Z,9.45
2022-09-03T10:45:01.038Z,10.35
2022-09-03T10:49:57.856Z,8.05
2022-09-03T10:54:59.400Z,9.55
2022-09-03T11:00:02.202Z,6.57
2022-09-03T11:04:56.286Z,7.22
2022-09-03T11:09:44.678Z,6.07
2022-09-03T11:14:38.758Z,5.88
2022-09-03T11:19:36.896Z,5.18
2022-09-03T11:24:26.944Z,7.07
2022-09-03T11:29:18.358Z,5.63
2022-09-03T11:34:11.088Z,7.15
2022-09-03T11:39:00.724Z,5.35
2022-09-03T11:43:47.424Z,7.55
2022-09-03T11:48:39.900Z,5.82
2022-09-03T11:53:30.320Z,8.95
2022-09-03T11:58:26.743Z,5.93
2022-09-03T12:03:20.199Z,5.60
2022-09-03T12:08:40.108Z,5.72
2022-09-03T12:13:40.642Z,7.65
2022-09-03T12:18:28.838Z,6.32
2022-09-03T12:23:14.837Z,7.82
2022-09-03T12:28:04.438Z,4.43
2022-09-03T12:32:52.698Z,5.85
2022-09-03T12:42:48.522Z,7.70
2022-09-03T12:47:42.468Z,8.07
2022-09-03T12:52:34.883Z,9.32
2022-09-03T12:57:24.427Z,5.70
2022-09-03T13:02:19.803Z,4.80
2022-09-03T13:07:08.175Z,6.65
2022-09-03T13:11:56.267Z,6.25
2022-09-03T13:17:06.803Z,4.90
2022-09-03T13:22:02.830Z,9.52
2022-09-03T13:27:02.740Z,5.88
2022-09-03T13:31:53.485Z,8.47
2022-09-03T13:36:48.343Z,8.10
2022-09-03T13:41:41.016Z,5.63
2022-09-03T13:46:35.012Z,4.05
2022-09-03T13:51:26.355Z,6.18
2022-09-03T14:01:20.633Z,5.25
2022-09-03T14:06:17.063Z,3.58
2022-09-03T14:11:12.489Z,5.47
2022-09-03T14:16:04.557Z,6.28
2022-09-03T14:20:58.329Z,7.95
2022-09-03T14:25:55.696Z,11.25
2022-09-03T14:30:46.666Z,3.78
2022-09-03T14:35:48.957Z,3.80
2022-09-03T14:40:43.335Z,5.63
2022-09-03T14:45:53.125Z,5.90
2022-09-03T14:50:51.357Z,4.32
2022-09-03T14:55:56.566Z,9.52
2022-09-03T15:00:55.183Z,4.65
2022-09-03T15:05:51.836Z,5.05
2022-09-03T15:10:41.633Z,5.82
2022-09-03T15:15:35.475Z,9.25
2022-09-03T15:20:32.834Z,9.43
2022-09-03T15:25:26.030Z,6.13
2022-09-03T15:30:13.998Z,7.85
2022-09-03T15:35:07.197Z,4.75
2022-09-03T15:40:05.078Z,7.55
2022-09-03T15:44:55.169Z,4.65
2022-09-03T15:49:51.568Z,5.20
2022-09-03T15:54:46.713Z,7.53
2022-09-03T15:59:43.121Z,7.05
2022-09-03T16:04:53.679Z,5.93
2022-09-03T16:10:23.233Z,6.13
2022-09-03T16:15:15.668Z,6.15
2022-09-03T16:20:07.760Z,5.10
2022-09-03T16:24:59.312Z,5.43
2022-09-03T16:29:44.729Z,8.60
2022-09-03T16:34:44.660Z,6.18
2022-09-03T16:39:43.863Z,7.93
2022-09-03T16:44:42.706Z,4.57
2022-09-03T16:49:45.823Z,5.15
2022-09-03T16:59:52.201Z,4.97
2022-09-03T17:05:04.925Z,3.40
2022-09-03T17:10:04.172Z,9.55
2022-09-03T17:15:19.785Z,6.82
2022-09-03T17:20:18.548Z,6.55
2022-09-03T17:25:08.198Z,5.53
2022-09-03T17:30:10.704Z,8.75
2022-09-03T17:35:09.703Z,8.68
2022-09-03T17:40:29.831Z,9.75
2022-09-03T17:45:23.025Z,4.22
2022-09-03T17:50:17.631Z,9.57
2022-09-03T17:55:14.567Z,7.68
2022-09-03T18:00:05.898Z,5.57
2022-09-03T18:04:56.614Z,5.60
2022-09-03T18:09:49.039Z,8.32
2022-09-03T18:14:38.538Z,7.75
2022-09-03T18:19:49.702Z,10.23
2022-09-03T18:24:56.484Z,6.55
2022-09-03T18:30:02.130Z,6.90
2022-09-03T18:35:03.064Z,7.30
2022-09-03T18:40:01.881Z,10.57
2022-09-03T18:45:21.407Z,10.18
2022-09-03T18:50:31.794Z,10.77
2022-09-03T18:55:38.392Z,9.95
2022-09-03T19:00:36.262Z,6.68
2022-09-03T19:05:47.085Z,9.00
2022-09-03T19:10:53.899Z,10.43
2022-09-03T19:15:59.919Z,8.35
2022-09-03T19:21:06.942Z,12.07
2022-09-03T19:26:09.655Z,6.93
2022-09-03T19:31:18.523Z,6.32
2022-09-03T19:36:31.504Z,7.05
2022-09-03T19:41:40.480Z,8.45
2022-09-03T19:46:49.046Z,8.52
2022-09-03T19:51:55.516Z,12.45
2022-09-03T19:56:55.565Z,10.73
2022-09-03T20:01:53.919Z,8.75
2022-09-03T20:06:54.906Z,7.63
2022-09-03T20:11:42.468Z,8.88
2022-09-03T20:16:33.026Z,9.30
2022-09-03T20:21:26.106Z,10.20
2022-09-03T20:26:26.023Z,10.50
2022-09-03T20:31:15.721Z,7.50
2022-09-03T20:36:10.728Z,10.65
2022-09-03T20:41:06.764Z,8.75
2022-09-03T20:46:16.325Z,7.55
2022-09-03T20:51:08.303Z,12.10
2022-09-03T20:56:01.571Z,10.60
2022-09-03T21:00:53.897Z,7.60
2022-09-03T21:05:50.750Z,9.95
2022-09-03T21:10:42.477Z,9.93
2022-09-03T21:15:35.518Z,13.50
2022-09-03T21:20:28.228Z,11.68
2022-09-03T21:25:19.583Z,10.82
2022-09-03T21:30:08.151Z,7.75
2022-09-03T21:35:04.283Z,14.90
2022-09-03T21:39:54.845Z,9.90
2022-09-03T21:44:58.247Z,8.70
2022-09-03T21:49:52.681Z,9.55
2022-09-03T21:54:38.523Z,7.00
2022-09-03T21:59:37.915Z,7.57
2022-09-03T22:04:26.049Z,7.65
2022-09-03T22:09:19.660Z,9.65
2022-09-03T22:14:12.735Z,8.25
2022-09-03T22:18:58.704Z,8.05
2022-09-03T22:24:04.316Z,12.10
2022-09-03T22:29:05.707Z,8.38
2022-09-03T22:34:00.824Z,9.43
2022-09-03T22:39:06.291Z,8.32
2022-09-03T22:43:55.823Z,10.05
2022-09-03T22:49:09.332Z,8.77
2022-09-03T22:54:13.634Z,10.02
2022-09-03T22:59:03.041Z,7.15
2022-09-03T23:03:58.412Z,7.90
2022-09-03T23:08:50.566Z,9.45
2022-09-03T23:18:32.594Z,8.18
2022-09-03T23:23:23.272Z,6.97
2022-09-03T23:28:14.345Z,9.30
2022-09-03T23:33:03.016Z,12.30
2022-09-03T23:38:03.219Z,11.00
2022-09-03T23:43:02.485Z,9.38
2022-09-03T23:47:56.618Z,7.57
2022-09-03T23:53:03.671Z,9.85
2022-09-03T23:58:00.122Z,9.35
